sensor_id;sensor_type;location;lat;lon;timestamp;temperature;humidity
22202;DHT22;11266;51.522;6.302;2023-06-10T00:00:18;22.30;96.60
22202;DHT22;11266;51.522;6.302;2023-06-10T00:01:04;22.30;96.60
22202;DHT22;11266;51.522;6.302;2023-06-10T00:01:50;22.30;96.80
22202;DHT22;11266;51.522;6.302;2023-06-10T00:02:35;22.20;96.80
22202;DHT22;11266;51.522;6.302;2023-06-10T00:03:21;22.20;96.70
22202;DHT22;11266;51.522;6.302;2023-06-10T00:04:09;22.20;96.70
22202;DHT22;11266;51.522;6.302;2023-06-10T00:04:54;22.20;96.80
22202;DHT22;11266;51.522;6.302;2023-06-10T00:05:41;22.20;96.80
22202;DHT22;11266;51.522;6.302;2023-06-10T00:06:27;22.20;96.90
22202;DHT22;11266;51.522;6.302;2023-06-10T00:07:13;22.10;96.90
22202;DHT22;11266;51.522;6.302;2023-06-10T00:07:59;22.10;96.80
22202;DHT22;11266;51.522;6.302;2023-06-10T00:08:45;22.10;96.90
22202;DHT22;11266;51.522;6.302;2023-06-10T00:09:32;22.10;96.80
22202;DHT22;11266;51.522;6.302;2023-06-10T00:10:18;22.10;96.80
22202;DHT22;11266;51.522;6.302;2023-06-10T00:11:03;22.10;96.80
22202;DHT22;11266;51.522;6.302;2023-06-10T00:11:49;22.10;97.00
22202;DHT22;11266;51.522;6.302;2023-06-10T00:12:35;22.10;96.90
22202;DHT22;11266;51.522;6.302;2023-06-10T00:13:22;22.10;97.00
22202;DHT22;11266;51.522;6.302;2023-06-10T00:14:08;22.10;96.80
22202;DHT22;11266;51.522;6.302;2023-06-10T00:14:53;22.10;97.10
22202;DHT22;11266;51.522;6.302;2023-06-10T00:15:39;22.10;97.10
22202;DHT22;11266;51.522;6.302;2023-06-10T00:16:25;22.00;96.90
22202;DHT22;11266;51.522;6.302;2023-06-10T00:17:11;22.00;96.90
22202;DHT22;11266;51.522;6.302;2023-06-10T00:17:56;22.00;97.00
22202;DHT22;11266;51.522;6.302;2023-06-10T00:18:42;22.00;97.10
22202;DHT22;11266;51.522;6.302;2023-06-10T00:19:29;22.00;97.10
22202;DHT22;11266;51.522;6.302;2023-06-10T00:20:19;22.00;97.10
22202;DHT22;11266;51.522;6.302;2023-06-10T00:21:08;22.00;97.20
22202;DHT22;11266;51.522;6.302;2023-06-10T00:21:54;21.90;97.20
22202;DHT22;11266;51.522;6.302;2023-06-10T00:22:40;21.90;97.10
22202;DHT22;11266;51.522;6.302;2023-06-10T00:23:26;21.90;97.10
22202;DHT22;11266;51.522;6.302;2023-06-10T00:24:14;21.90;97.10
22202;DHT22;11266;51.522;6.302;2023-06-10T00:25:00;21.90;97.10
22202;DHT22;11266;51.522;6.302;2023-06-10T00:25:45;21.90;97.10
22202;DHT22;11266;51.522;6.302;2023-06-10T00:26:31;21.90;97.10
22202;DHT22;11266;51.522;6.302;2023-06-10T00:27:17;21.90;97.00
22202;DHT22;11266;51.522;6.302;2023-06-10T00:28:03;21.90;97.20
22202;DHT22;11266;51.522;6.302;2023-06-10T00:28:49;21.90;97.20
22202;DHT22;11266;51.522;6.302;2023-06-10T00:29:35;21.90;97.10
22202;DHT22;11266;51.522;6.302;2023-06-10T00:30:20;21.90;97.10
22202;DHT22;11266;51.522;6.302;2023-06-10T00:31:06;21.90;97.40
22202;DHT22;11266;51.522;6.302;2023-06-10T00:31:52;21.80;97.40
22202;DHT22;11266;51.522;6.302;2023-06-10T00:32:42;21.70;97.50
22202;DHT22;11266;51.522;6.302;2023-06-10T00:33:28;21.80;97.30
22202;DHT22;11266;51.522;6.302;2023-06-10T00:34:14;21.70;97.60
22202;DHT22;11266;51.522;6.302;2023-06-10T00:35:00;21.70;97.40
22202;DHT22;11266;51.522;6.302;2023-06-10T00:35:45;21.70;97.40
22202;DHT22;11266;51.522;6.302;2023-06-10T00:36:31;21.70;97.30
22202;DHT22;11266;51.522;6.302;2023-06-10T00:37:17;21.70;97.30
22202;DHT22;11266;51.522;6.302;2023-06-10T00:38:02;21.70;97.30
22202;DHT22;11266;51.522;6.302;2023-06-10T00:38:48;21.70;97.30
22202;DHT22;11266;51.522;6.302;2023-06-10T00:39:33;21.70;97.60
22202;DHT22;11266;51.522;6.302;2023-06-10T00:40:19;21.70;97.50
22202;DHT22;11266;51.522;6.302;2023-06-10T00:41:04;21.70;97.50
22202;DHT22;11266;51.522;6.302;2023-06-10T00:41:50;21.60;97.50
22202;DHT22;11266;51.522;6.302;2023-06-10T00:42:36;21.70;97.60
22202;DHT22;11266;51.522;6.302;2023-06-10T00:43:22;21.60;97.40
22202;DHT22;11266;51.522;6.302;2023-06-10T00:44:07;21.60;97.40
22202;DHT22;11266;51.522;6.302;2023-06-10T00:44:54;21.60;97.40
22202;DHT22;11266;51.522;6.302;2023-06-10T00:45:40;21.60;97.50
22202;DHT22;11266;51.522;6.302;2023-06-10T00:46:26;21.60;97.80
22202;DHT22;11266;51.522;6.302;2023-06-10T00:47:12;21.60;97.60
22202;DHT22;11266;51.522;6.302;2023-06-10T00:47:59;21.50;97.70
22202;DHT22;11266;51.522;6.302;2023-06-10T00:48:45;21.50;98.00
22202;DHT22;11266;51.522;6.302;2023-06-10T00:49:32;21.50;97.90
22202;DHT22;11266;51.522;6.302;2023-06-10T00:50:18;21.40;97.60
22202;DHT22;11266;51.522;6.302;2023-06-10T00:51:05;21.40;97.80
22202;DHT22;11266;51.522;6.302;2023-06-10T00:51:51;21.40;98.00
22202;DHT22;11266;51.522;6.302;2023-06-10T00:52:37;21.40;97.80
22202;DHT22;11266;51.522;6.302;2023-06-10T00:53:23;21.40;97.70
22202;DHT22;11266;51.522;6.302;2023-06-10T00:54:10;21.40;97.60
22202;DHT22;11266;51.522;6.302;2023-06-10T00:54:59;21.40;97.60
22202;DHT22;11266;51.522;6.302;2023-06-10T00:55:45;21.40;97.70
22202;DHT22;11266;51.522;6.302;2023-06-10T00:56:31;21.40;97.80
22202;DHT22;11266;51.522;6.302;2023-06-10T00:57:17;21.40;98.00
22202;DHT22;11266;51.522;6.302;2023-06-10T00:58:03;21.40;97.80
22202;DHT22;11266;51.522;6.302;2023-06-10T00:58:49;21.30;97.80
22202;DHT22;11266;51.522;6.302;2023-06-10T00:59:35;21.40;98.00
22202;DHT22;11266;51.522;6.302;2023-06-10T01:00:21;21.40;97.90
22202;DHT22;11266;51.522;6.302;2023-06-10T01:01:07;21.30;97.90
22202;DHT22;11266;51.522;6.302;2023-06-10T01:01:57;21.30;97.90
22202;DHT22;11266;51.522;6.302;2023-06-10T01:02:42;21.40;97.90
22202;DHT22;11266;51.522;6.302;2023-06-10T01:03:28;21.30;97.90
22202;DHT22;11266;51.522;6.302;2023-06-10T01:04:14;21.30;97.70
22202;DHT22;11266;51.522;6.302;2023-06-10T01:05:00;21.30;97.80
22202;DHT22;11266;51.522;6.302;2023-06-10T01:05:53;21.30;98.10
22202;DHT22;11266;51.522;6.302;2023-06-10T01:08:07;21.20;98.10
22202;DHT22;11266;51.522;6.302;2023-06-10T01:09:42;21.20;98.00
22202;DHT22;11266;51.522;6.302;2023-06-10T01:10:24;21.20;97.80
22202;DHT22;11266;51.522;6.302;2023-06-10T01:11:19;21.20;97.90
22202;DHT22;11266;51.522;6.302;2023-06-10T01:12:26;21.20;98.30
22202;DHT22;11266;51.522;6.302;2023-06-10T01:13:15;21.20;98.00
22202;DHT22;11266;51.522;6.302;2023-06-10T01:14:01;21.10;98.10
22202;DHT22;11266;51.522;6.302;2023-06-10T01:14:48;21.20;98.20
22202;DHT22;11266;51.522;6.302;2023-06-10T01:15:35;21.20;98.40
22202;DHT22;11266;51.522;6.302;2023-06-10T01:16:22;21.10;98.20
22202;DHT22;11266;51.522;6.302;2023-06-10T01:17:07;21.10;98.50
22202;DHT22;11266;51.522;6.302;2023-06-10T01:17:55;21.00;98.40
22202;DHT22;11266;51.522;6.302;2023-06-10T01:18:43;21.00;98.50
22202;DHT22;11266;51.522;6.302;2023-06-10T01:19:28;21.00;98.30
22202;DHT22;11266;51.522;6.302;2023-06-10T01:20:16;21.00;98.50
22202;DHT22;11266;51.522;6.302;2023-06-10T01:21:02;21.00;98.30
22202;DHT22;11266;51.522;6.302;2023-06-10T01:21:48;21.00;98.60
22202;DHT22;11266;51.522;6.302;2023-06-10T01:22:34;21.00;98.80
22202;DHT22;11266;51.522;6.302;2023-06-10T01:23:21;20.90;98.40
22202;DHT22;11266;51.522;6.302;2023-06-10T01:24:07;20.90;98.30
22202;DHT22;11266;51.522;6.302;2023-06-10T01:24:56;20.90;98.20
22202;DHT22;11266;51.522;6.302;2023-06-10T01:26:13;21.00;98.60
22202;DHT22;11266;51.522;6.302;2023-06-10T01:27:01;20.90;98.70
22202;DHT22;11266;51.522;6.302;2023-06-10T01:27:51;20.90;98.60
22202;DHT22;11266;51.522;6.302;2023-06-10T01:28:50;20.90;99.00
22202;DHT22;11266;51.522;6.302;2023-06-10T01:29:48;20.80;98.90
22202;DHT22;11266;51.522;6.302;2023-06-10T01:31:12;20.80;98.90
22202;DHT22;11266;51.522;6.302;2023-06-10T01:32:01;20.80;98.80
22202;DHT22;11266;51.522;6.302;2023-06-10T01:32:51;20.80;98.70
22202;DHT22;11266;51.522;6.302;2023-06-10T01:33:45;20.70;99.00
22202;DHT22;11266;51.522;6.302;2023-06-10T01:34:33;20.70;99.00
22202;DHT22;11266;51.522;6.302;2023-06-10T01:35:21;20.70;98.80
22202;DHT22;11266;51.522;6.302;2023-06-10T01:36:09;20.70;98.80
22202;DHT22;11266;51.522;6.302;2023-06-10T01:36:55;20.70;98.80
22202;DHT22;11266;51.522;6.302;2023-06-10T01:37:45;20.60;99.30
22202;DHT22;11266;51.522;6.302;2023-06-10T01:38:35;20.60;99.20
22202;DHT22;11266;51.522;6.302;2023-06-10T01:39:24;20.60;99.30
22202;DHT22;11266;51.522;6.302;2023-06-10T01:40:11;20.60;99.30
22202;DHT22;11266;51.522;6.302;2023-06-10T01:40:57;20.60;99.40
22202;DHT22;11266;51.522;6.302;2023-06-10T01:41:43;20.60;99.30
22202;DHT22;11266;51.522;6.302;2023-06-10T01:42:29;20.60;99.30
22202;DHT22;11266;51.522;6.302;2023-06-10T01:43:15;20.60;99.10
22202;DHT22;11266;51.522;6.302;2023-06-10T01:44:00;20.60;99.90
22202;DHT22;11266;51.522;6.302;2023-06-10T01:44:46;20.50;99.60
22202;DHT22;11266;51.522;6.302;2023-06-10T01:45:32;20.50;99.50
22202;DHT22;11266;51.522;6.302;2023-06-10T01:46:17;20.60;99.40
22202;DHT22;11266;51.522;6.302;2023-06-10T01:47:05;20.60;99.40
22202;DHT22;11266;51.522;6.302;2023-06-10T01:47:50;20.50;99.20
22202;DHT22;11266;51.522;6.302;2023-06-10T01:48:37;20.50;99.60
22202;DHT22;11266;51.522;6.302;2023-06-10T01:49:23;20.50;99.40
22202;DHT22;11266;51.522;6.302;2023-06-10T01:50:09;20.50;99.90
22202;DHT22;11266;51.522;6.302;2023-06-10T01:50:55;20.50;99.30
22202;DHT22;11266;51.522;6.302;2023-06-10T01:51:41;20.50;99.60
22202;DHT22;11266;51.522;6.302;2023-06-10T01:52:26;20.50;99.80
22202;DHT22;11266;51.522;6.302;2023-06-10T01:53:12;20.50;99.30
22202;DHT22;11266;51.522;6.302;2023-06-10T01:53:58;20.50;99.40
22202;DHT22;11266;51.522;6.302;2023-06-10T01:54:43;20.50;99.60
22202;DHT22;11266;51.522;6.302;2023-06-10T01:55:29;20.40;99.80
22202;DHT22;11266;51.522;6.302;2023-06-10T01:56:14;20.40;99.90
22202;DHT22;11266;51.522;6.302;2023-06-10T01:57:03;20.40;99.90
22202;DHT22;11266;51.522;6.302;2023-06-10T01:57:49;20.40;99.90
22202;DHT22;11266;51.522;6.302;2023-06-10T01:58:34;20.30;99.90
22202;DHT22;11266;51.522;6.302;2023-06-10T01:59:20;20.30;99.90
22202;DHT22;11266;51.522;6.302;2023-06-10T02:00:06;20.30;99.90
22202;DHT22;11266;51.522;6.302;2023-06-10T02:00:53;20.30;99.80
22202;DHT22;11266;51.522;6.302;2023-06-10T02:01:38;20.30;99.70
22202;DHT22;11266;51.522;6.302;2023-06-10T02:02:24;20.30;99.40
22202;DHT22;11266;51.522;6.302;2023-06-10T02:03:10;20.30;99.30
22202;DHT22;11266;51.522;6.302;2023-06-10T02:03:55;20.30;99.80
22202;DHT22;11266;51.522;6.302;2023-06-10T02:04:41;20.30;99.70
22202;DHT22;11266;51.522;6.302;2023-06-10T02:05:26;20.40;99.70
22202;DHT22;11266;51.522;6.302;2023-06-10T02:06:12;20.30;99.50
22202;DHT22;11266;51.522;6.302;2023-06-10T02:06:58;20.30;99.90
22202;DHT22;11266;51.522;6.302;2023-06-10T02:07:43;20.30;99.60
22202;DHT22;11266;51.522;6.302;2023-06-10T02:08:29;20.30;99.70
22202;DHT22;11266;51.522;6.302;2023-06-10T02:09:15;20.30;99.50
22202;DHT22;11266;51.522;6.302;2023-06-10T02:10:00;20.30;99.50
22202;DHT22;11266;51.522;6.302;2023-06-10T02:10:46;20.30;99.60
22202;DHT22;11266;51.522;6.302;2023-06-10T02:11:31;20.30;99.70
22202;DHT22;11266;51.522;6.302;2023-06-10T02:12:17;20.30;99.60
22202;DHT22;11266;51.522;6.302;2023-06-10T02:13:02;20.30;99.50
22202;DHT22;11266;51.522;6.302;2023-06-10T02:13:48;20.30;99.90
22202;DHT22;11266;51.522;6.302;2023-06-10T02:14:34;20.30;99.90
22202;DHT22;11266;51.522;6.302;2023-06-10T02:15:19;20.30;99.90
22202;DHT22;11266;51.522;6.302;2023-06-10T02:16:05;20.30;99.90
22202;DHT22;11266;51.522;6.302;2023-06-10T02:16:51;20.30;99.90
22202;DHT22;11266;51.522;6.302;2023-06-10T02:17:36;20.30;99.90
22202;DHT22;11266;51.522;6.302;2023-06-10T02:18:22;20.20;99.90
22202;DHT22;11266;51.522;6.302;2023-06-10T02:19:08;20.20;99.90
22202;DHT22;11266;51.522;6.302;2023-06-10T02:19:54;20.20;99.60
22202;DHT22;11266;51.522;6.302;2023-06-10T02:20:39;20.20;99.90
22202;DHT22;11266;51.522;6.302;2023-06-10T02:21:25;20.10;99.90
22202;DHT22;11266;51.522;6.302;2023-06-10T02:22:10;20.10;99.90
22202;DHT22;11266;51.522;6.302;2023-06-10T02:22:58;20.10;99.90
22202;DHT22;11266;51.522;6.302;2023-06-10T02:23:43;20.10;99.90
22202;DHT22;11266;51.522;6.302;2023-06-10T02:24:29;20.10;99.90
22202;DHT22;11266;51.522;6.302;2023-06-10T02:25:14;20.10;99.80
22202;DHT22;11266;51.522;6.302;2023-06-10T02:26:00;20.10;99.90
22202;DHT22;11266;51.522;6.302;2023-06-10T02:26:46;20.10;99.90
22202;DHT22;11266;51.522;6.302;2023-06-10T02:27:33;20.10;99.90
22202;DHT22;11266;51.522;6.302;2023-06-10T02:28:18;20.10;99.90
22202;DHT22;11266;51.522;6.302;2023-06-10T02:29:04;20.10;99.90
22202;DHT22;11266;51.522;6.302;2023-06-10T02:29:50;20.10;99.90
22202;DHT22;11266;51.522;6.302;2023-06-10T02:30:39;20.00;99.90
22202;DHT22;11266;51.522;6.302;2023-06-10T02:31:24;20.00;99.90
22202;DHT22;11266;51.522;6.302;2023-06-10T02:32:10;20.00;99.90
22202;DHT22;11266;51.522;6.302;2023-06-10T02:32:56;20.00;99.90
22202;DHT22;11266;51.522;6.302;2023-06-10T02:33:42;20.00;99.90
22202;DHT22;11266;51.522;6.302;2023-06-10T02:34:27;20.00;99.90
22202;DHT22;11266;51.522;6.302;2023-06-10T02:35:14;20.00;99.90
22202;DHT22;11266;51.522;6.302;2023-06-10T02:36:00;20.10;99.90
22202;DHT22;11266;51.522;6.302;2023-06-10T02:36:45;20.10;99.90
22202;DHT22;11266;51.522;6.302;2023-06-10T02:37:31;20.00;99.90
22202;DHT22;11266;51.522;6.302;2023-06-10T02:38:16;20.10;99.90
22202;DHT22;11266;51.522;6.302;2023-06-10T02:39:02;20.00;99.90
22202;DHT22;11266;51.522;6.302;2023-06-10T02:39:49;20.00;99.90
22202;DHT22;11266;51.522;6.302;2023-06-10T02:40:35;20.00;99.90
22202;DHT22;11266;51.522;6.302;2023-06-10T02:41:20;20.00;99.90
22202;DHT22;11266;51.522;6.302;2023-06-10T02:42:07;20.00;99.90
22202;DHT22;11266;51.522;6.302;2023-06-10T02:42:52;19.90;99.90
22202;DHT22;11266;51.522;6.302;2023-06-10T02:43:38;19.90;99.90
22202;DHT22;11266;51.522;6.302;2023-06-10T02:44:24;19.90;99.90
22202;DHT22;11266;51.522;6.302;2023-06-10T02:45:10;19.90;99.90
22202;DHT22;11266;51.522;6.302;2023-06-10T02:45:56;19.90;99.90
22202;DHT22;11266;51.522;6.302;2023-06-10T02:46:41;19.90;99.90
22202;DHT22;11266;51.522;6.302;2023-06-10T02:47:27;19.90;99.90
22202;DHT22;11266;51.522;6.302;2023-06-10T02:48:12;19.80;99.90
22202;DHT22;11266;51.522;6.302;2023-06-10T02:48:58;19.80;99.90
22202;DHT22;11266;51.522;6.302;2023-06-10T02:49:43;19.80;99.90
22202;DHT22;11266;51.522;6.302;2023-06-10T02:50:29;19.80;99.90
22202;DHT22;11266;51.522;6.302;2023-06-10T02:51:14;19.80;99.90
22202;DHT22;11266;51.522;6.302;2023-06-10T02:52:00;19.80;99.90
22202;DHT22;11266;51.522;6.302;2023-06-10T02:52:45;19.80;99.90
22202;DHT22;11266;51.522;6.302;2023-06-10T02:53:31;19.80;99.90
22202;DHT22;11266;51.522;6.302;2023-06-10T02:54:16;19.80;99.90
22202;DHT22;11266;51.522;6.302;2023-06-10T02:55:02;19.70;99.90
22202;DHT22;11266;51.522;6.302;2023-06-10T02:55:47;19.70;99.90
22202;DHT22;11266;51.522;6.302;2023-06-10T02:56:35;19.70;99.90
22202;DHT22;11266;51.522;6.302;2023-06-10T02:57:21;19.70;99.90
22202;DHT22;11266;51.522;6.302;2023-06-10T02:58:07;19.70;99.90
22202;DHT22;11266;51.522;6.302;2023-06-10T02:58:53;19.70;99.90
22202;DHT22;11266;51.522;6.302;2023-06-10T02:59:38;19.70;99.90
22202;DHT22;11266;51.522;6.302;2023-06-10T03:00:24;19.70;99.90
22202;DHT22;11266;51.522;6.302;2023-06-10T03:01:09;19.70;99.90
22202;DHT22;11266;51.522;6.302;2023-06-10T03:01:55;19.70;99.90
22202;DHT22;11266;51.522;6.302;2023-06-10T03:02:41;19.70;99.90
22202;DHT22;11266;51.522;6.302;2023-06-10T03:03:27;19.60;99.90
22202;DHT22;11266;51.522;6.302;2023-06-10T03:04:13;19.60;99.90
22202;DHT22;11266;51.522;6.302;2023-06-10T03:05:00;19.60;99.90
22202;DHT22;11266;51.522;6.302;2023-06-10T03:05:45;19.60;99.90
22202;DHT22;11266;51.522;6.302;2023-06-10T03:06:31;19.60;99.90
22202;DHT22;11266;51.522;6.302;2023-06-10T03:07:18;19.60;99.90
22202;DHT22;11266;51.522;6.302;2023-06-10T03:08:06;19.60;99.90
22202;DHT22;11266;51.522;6.302;2023-06-10T03:08:51;19.60;99.90
22202;DHT22;11266;51.522;6.302;2023-06-10T03:09:37;19.60;99.90
22202;DHT22;11266;51.522;6.302;2023-06-10T03:10:22;19.60;99.90
22202;DHT22;11266;51.522;6.302;2023-06-10T03:11:08;19.60;99.90
22202;DHT22;11266;51.522;6.302;2023-06-10T03:11:54;19.60;99.90
22202;DHT22;11266;51.522;6.302;2023-06-10T03:12:39;19.60;99.90
22202;DHT22;11266;51.522;6.302;2023-06-10T03:13:25;19.60;99.90
22202;DHT22;11266;51.522;6.302;2023-06-10T03:14:11;19.60;99.90
22202;DHT22;11266;51.522;6.302;2023-06-10T03:14:56;19.60;99.90
22202;DHT22;11266;51.522;6.302;2023-06-10T03:15:42;19.50;99.90
22202;DHT22;11266;51.522;6.302;2023-06-10T03:16:28;19.60;99.90
22202;DHT22;11266;51.522;6.302;2023-06-10T03:17:15;19.60;99.90
22202;DHT22;11266;51.522;6.302;2023-06-10T03:18:01;19.60;99.90
22202;DHT22;11266;51.522;6.302;2023-06-10T03:18:48;19.60;99.90
22202;DHT22;11266;51.522;6.302;2023-06-10T03:19:34;19.60;99.90
22202;DHT22;11266;51.522;6.302;2023-06-10T03:20:20;19.50;99.90
22202;DHT22;11266;51.522;6.302;2023-06-10T03:21:06;19.50;99.90
22202;DHT22;11266;51.522;6.302;2023-06-10T03:22:12;19.50;99.90
22202;DHT22;11266;51.522;6.302;2023-06-10T03:22:58;19.50;99.90
22202;DHT22;11266;51.522;6.302;2023-06-10T03:23:44;19.50;99.90
22202;DHT22;11266;51.522;6.302;2023-06-10T03:24:29;19.50;99.90
22202;DHT22;11266;51.522;6.302;2023-06-10T03:25:15;19.50;99.90
22202;DHT22;11266;51.522;6.302;2023-06-10T03:26:01;19.50;99.90
22202;DHT22;11266;51.522;6.302;2023-06-10T03:26:47;19.40;99.90
22202;DHT22;11266;51.522;6.302;2023-06-10T03:27:32;19.40;99.90
22202;DHT22;11266;51.522;6.302;2023-06-10T03:28:18;19.40;99.90
22202;DHT22;11266;51.522;6.302;2023-06-10T03:29:04;19.40;99.90
22202;DHT22;11266;51.522;6.302;2023-06-10T03:29:50;19.40;99.90
22202;DHT22;11266;51.522;6.302;2023-06-10T03:30:35;19.40;99.90
22202;DHT22;11266;51.522;6.302;2023-06-10T03:31:21;19.40;99.90
22202;DHT22;11266;51.522;6.302;2023-06-10T03:32:07;19.40;99.90
22202;DHT22;11266;51.522;6.302;2023-06-10T03:32:53;19.40;99.90
22202;DHT22;11266;51.522;6.302;2023-06-10T03:33:38;19.40;99.90
22202;DHT22;11266;51.522;6.302;2023-06-10T03:34:24;19.30;99.90
22202;DHT22;11266;51.522;6.302;2023-06-10T03:35:09;19.30;99.90
22202;DHT22;11266;51.522;6.302;2023-06-10T03:35:55;19.30;99.90
22202;DHT22;11266;51.522;6.302;2023-06-10T03:36:41;19.30;99.90
22202;DHT22;11266;51.522;6.302;2023-06-10T03:37:28;19.30;99.90
22202;DHT22;11266;51.522;6.302;2023-06-10T03:38:13;19.30;99.90
22202;DHT22;11266;51.522;6.302;2023-06-10T03:38:59;19.30;99.90
22202;DHT22;11266;51.522;6.302;2023-06-10T03:39:45;19.30;99.90
22202;DHT22;11266;51.522;6.302;2023-06-10T03:40:30;19.30;99.90
22202;DHT22;11266;51.522;6.302;2023-06-10T03:41:17;19.30;99.90
22202;DHT22;11266;51.522;6.302;2023-06-10T03:42:02;19.30;99.90
22202;DHT22;11266;51.522;6.302;2023-06-10T03:42:48;19.30;99.90
22202;DHT22;11266;51.522;6.302;2023-06-10T03:43:34;19.20;99.90
22202;DHT22;11266;51.522;6.302;2023-06-10T03:44:19;19.20;99.90
22202;DHT22;11266;51.522;6.302;2023-06-10T03:45:05;19.30;99.90
22202;DHT22;11266;51.522;6.302;2023-06-10T03:45:51;19.30;99.90
22202;DHT22;11266;51.522;6.302;2023-06-10T03:46:37;19.20;99.90
22202;DHT22;11266;51.522;6.302;2023-06-10T03:47:23;19.20;99.90
22202;DHT22;11266;51.522;6.302;2023-06-10T03:48:08;19.20;99.90
22202;DHT22;11266;51.522;6.302;2023-06-10T03:48:54;19.20;99.90
22202;DHT22;11266;51.522;6.302;2023-06-10T03:49:40;19.20;99.90
22202;DHT22;11266;51.522;6.302;2023-06-10T03:50:25;19.20;99.90
22202;DHT22;11266;51.522;6.302;2023-06-10T03:51:11;19.20;99.90
22202;DHT22;11266;51.522;6.302;2023-06-10T03:51:57;19.20;99.90
22202;DHT22;11266;51.522;6.302;2023-06-10T03:52:42;19.20;99.90
22202;DHT22;11266;51.522;6.302;2023-06-10T03:53:29;19.20;99.90
22202;DHT22;11266;51.522;6.302;2023-06-10T03:54:15;19.20;99.90
22202;DHT22;11266;51.522;6.302;2023-06-10T03:55:00;19.20;99.90
22202;DHT22;11266;51.522;6.302;2023-06-10T03:55:46;19.20;99.90
22202;DHT22;11266;51.522;6.302;2023-06-10T03:56:31;19.20;99.90
22202;DHT22;11266;51.522;6.302;2023-06-10T03:57:17;19.20;99.90
22202;DHT22;11266;51.522;6.302;2023-06-10T03:58:03;19.20;99.90
22202;DHT22;11266;51.522;6.302;2023-06-10T03:58:48;19.20;99.90
22202;DHT22;11266;51.522;6.302;2023-06-10T03:59:34;19.20;99.90
22202;DHT22;11266;51.522;6.302;2023-06-10T04:00:22;19.20;99.90
22202;DHT22;11266;51.522;6.302;2023-06-10T04:01:07;19.20;99.90
22202;DHT22;11266;51.522;6.302;2023-06-10T04:01:53;19.20;99.90
22202;DHT22;11266;51.522;6.302;2023-06-10T04:02:39;19.20;99.90
22202;DHT22;11266;51.522;6.302;2023-06-10T04:03:31;19.20;99.90
22202;DHT22;11266;51.522;6.302;2023-06-10T04:04:17;19.20;99.90
22202;DHT22;11266;51.522;6.302;2023-06-10T04:05:02;19.20;99.90
22202;DHT22;11266;51.522;6.302;2023-06-10T04:05:48;19.30;99.90
22202;DHT22;11266;51.522;6.302;2023-06-10T04:06:35;19.30;99.90
22202;DHT22;11266;51.522;6.302;2023-06-10T04:07:22;19.30;99.90
22202;DHT22;11266;51.522;6.302;2023-06-10T04:08:09;19.30;99.90
22202;DHT22;11266;51.522;6.302;2023-06-10T04:08:55;19.30;99.90
22202;DHT22;11266;51.522;6.302;2023-06-10T04:09:42;19.30;99.90
22202;DHT22;11266;51.522;6.302;2023-06-10T04:10:27;19.30;99.90
22202;DHT22;11266;51.522;6.302;2023-06-10T04:11:13;19.40;99.90
22202;DHT22;11266;51.522;6.302;2023-06-10T04:11:59;19.40;99.90
22202;DHT22;11266;51.522;6.302;2023-06-10T04:12:44;19.40;99.90
22202;DHT22;11266;51.522;6.302;2023-06-10T04:13:30;19.40;99.90
22202;DHT22;11266;51.522;6.302;2023-06-10T04:14:15;19.50;99.90
22202;DHT22;11266;51.522;6.302;2023-06-10T04:15:02;19.50;99.90
22202;DHT22;11266;51.522;6.302;2023-06-10T04:15:47;19.60;99.90
22202;DHT22;11266;51.522;6.302;2023-06-10T04:16:33;19.60;99.90
22202;DHT22;11266;51.522;6.302;2023-06-10T04:17:18;19.60;99.90
22202;DHT22;11266;51.522;6.302;2023-06-10T04:18:04;19.60;99.90
22202;DHT22;11266;51.522;6.302;2023-06-10T04:18:50;19.70;99.90
22202;DHT22;11266;51.522;6.302;2023-06-10T04:19:36;19.70;99.90
22202;DHT22;11266;51.522;6.302;2023-06-10T04:20:21;19.70;99.90
22202;DHT22;11266;51.522;6.302;2023-06-10T04:21:07;19.80;99.90
22202;DHT22;11266;51.522;6.302;2023-06-10T04:21:54;19.80;99.90
22202;DHT22;11266;51.522;6.302;2023-06-10T04:22:39;19.80;99.90
22202;DHT22;11266;51.522;6.302;2023-06-10T04:23:25;19.80;99.90
22202;DHT22;11266;51.522;6.302;2023-06-10T04:24:11;19.90;99.90
22202;DHT22;11266;51.522;6.302;2023-06-10T04:24:57;19.90;99.90
22202;DHT22;11266;51.522;6.302;2023-06-10T04:25:44;20.00;99.90
22202;DHT22;11266;51.522;6.302;2023-06-10T04:26:29;20.00;99.90
22202;DHT22;11266;51.522;6.302;2023-06-10T04:27:15;20.00;99.90
22202;DHT22;11266;51.522;6.302;2023-06-10T04:28:01;20.00;99.90
22202;DHT22;11266;51.522;6.302;2023-06-10T04:28:46;20.10;99.90
22202;DHT22;11266;51.522;6.302;2023-06-10T04:29:32;20.10;99.90
22202;DHT22;11266;51.522;6.302;2023-06-10T04:30:17;20.20;99.90
22202;DHT22;11266;51.522;6.302;2023-06-10T04:31:03;20.20;99.90
22202;DHT22;11266;51.522;6.302;2023-06-10T04:31:49;20.20;99.90
22202;DHT22;11266;51.522;6.302;2023-06-10T04:32:35;20.30;99.90
22202;DHT22;11266;51.522;6.302;2023-06-10T04:33:21;20.30;99.90
22202;DHT22;11266;51.522;6.302;2023-06-10T04:34:07;20.40;99.90
22202;DHT22;11266;51.522;6.302;2023-06-10T04:34:53;20.40;99.90
22202;DHT22;11266;51.522;6.302;2023-06-10T04:35:38;20.40;99.90
22202;DHT22;11266;51.522;6.302;2023-06-10T04:36:24;20.50;99.90
22202;DHT22;11266;51.522;6.302;2023-06-10T04:37:09;20.50;99.90
22202;DHT22;11266;51.522;6.302;2023-06-10T04:37:55;20.40;99.90
22202;DHT22;11266;51.522;6.302;2023-06-10T04:38:40;20.50;99.90
22202;DHT22;11266;51.522;6.302;2023-06-10T04:39:26;20.50;99.90
22202;DHT22;11266;51.522;6.302;2023-06-10T04:40:12;20.50;99.90
22202;DHT22;11266;51.522;6.302;2023-06-10T04:40:58;20.50;99.90
22202;DHT22;11266;51.522;6.302;2023-06-10T04:41:43;20.50;99.90
22202;DHT22;11266;51.522;6.302;2023-06-10T04:42:29;20.60;99.90
22202;DHT22;11266;51.522;6.302;2023-06-10T04:43:15;20.70;99.90
22202;DHT22;11266;51.522;6.302;2023-06-10T04:44:01;20.70;99.90
22202;DHT22;11266;51.522;6.302;2023-06-10T04:44:46;20.70;99.90
22202;DHT22;11266;51.522;6.302;2023-06-10T04:45:32;20.70;99.90
22202;DHT22;11266;51.522;6.302;2023-06-10T04:46:18;20.70;99.90
22202;DHT22;11266;51.522;6.302;2023-06-10T04:47:04;20.70;99.90
22202;DHT22;11266;51.522;6.302;2023-06-10T04:47:49;20.80;99.90
22202;DHT22;11266;51.522;6.302;2023-06-10T04:48:35;20.80;99.90
22202;DHT22;11266;51.522;6.302;2023-06-10T04:49:21;20.90;99.90
22202;DHT22;11266;51.522;6.302;2023-06-10T04:50:07;21.00;99.90
22202;DHT22;11266;51.522;6.302;2023-06-10T04:50:52;21.00;99.90
22202;DHT22;11266;51.522;6.302;2023-06-10T04:51:38;21.10;99.90
22202;DHT22;11266;51.522;6.302;2023-06-10T04:52:23;21.10;99.90
22202;DHT22;11266;51.522;6.302;2023-06-10T04:53:09;21.20;99.90
22202;DHT22;11266;51.522;6.302;2023-06-10T04:53:55;21.10;99.90
22202;DHT22;11266;51.522;6.302;2023-06-10T04:54:40;21.10;99.90
22202;DHT22;11266;51.522;6.302;2023-06-10T04:55:26;21.20;99.90